Terminal Aerodrome Forecast
Issued by NWS Twin Cities, MN

Home | Current Version | Previous Version | Graphics & Text | Print | Product List | Glossary On
Versions: 1 2 3 4 5 6 7 8 9 10 11 12 13 14 15 16 17 18 19 20 21 22 23 24 25 26 27 28
000
FTUS43 KMPX 180520
TAFMSP
TAF
KMSP 180520Z 1806/1912 VRB03KT P6SM SCT250
     FM181000 05007KT P6SM SCT250
     FM181700 09012G20KT P6SM SCT150
     FM190200 11016G25KT 6SM -RA OVC050
     FM190600 12016G25KT 6SM -RA SCT015 OVC025=

USA.gov is the U.S. government's official web portal to all federal, state and local government web resources and services.